Aérodrome :







RETROUVEZ-NOUS SUR...

 
LOGIN :

S'inscrire | Disclaimer

   EN    FR    IT 

 









Légende :    VFR   VFR Marginal   IFR   IFR Intensif   IFR Très Intensif
Visi : 
Plafond : 
>= 8 km
>= 3000ft
5 à 8 km
1000 à 3000 ft
1500m à 5 km
500 à 1000 ft
800 à 1500m
200 à 500 ft
< 800m
< 200 ft
Symboles :   Orages  Brouillard  Fortes neiges  Fortes précipitations  Vent > 20 kt






- Altitude de l'aérodrome : 1663 ft
- Code IATA : SLK


KSLK - Adirondack Regional

DERNIER METAR :
  • 210051Z AUTO 00000KT 10SM CLR M19/M23 A3033 RMK AO2 SLP316 T11941228

METARs EXPIRÉS :
  • 202351Z AUTO 00000KT 10SM CLR M17/M21 A3032 RMK AO2 SLP309 T11671211 11100 21172 51012
  • 202251Z AUTO VRB03KT 10SM CLR M13/M21 A3031 RMK AO2 SLP303 T11331206

TAF KSLK
Valide du 21 à 00h jusqu'au 22 à 00h UTC


202321Z 2100/2124 00000KT P6SM FEW150
FM210900 25005KT P6SM FEW180
FM211800 23011G19KT P6SM FEW150



MET'MAP, la Météo Aéronautique d'un coup d'oeil ! - Copyright ORBIFLY Décembre 2007 - Disclaimer

ORBIFLY MET'MAP TEAM :

Programmation & Développement : Alexandra Zaïnal
Sur une idée originale de : Baudouin d'Aumeries
Assistance à la programmation : Marc-Olivier Méhu
Soutien technique & logistique : Manuel Goepfert

Contact : metmap@orbifly.com




SOURCES & CREDITS :

   NOAA